Time;durP1;ratioP1;P1;durP2;ratioP2;P2;SDS_P1;SDS_P2;PMS_P1;PMS_P2;Temp;Humidity;BMP_temperature;BMP_pressure;BME280_temperature;BME280_humidity;BME280_pressure;Samples;Min_cycle;Max_cycle;Signal;HPM_P1;HPM_P2
2023/01/23 00:08:02;;;;;;;7.45;4.35;;;2.40;87.60;;;;;;20574389;28;20043;-46
2023/01/23 00:18:03;;;;;;;7.70;3.42;;;2.40;88.30;;;;;;20564827;28;20046;-46
2023/01/23 00:28:04;;;;;;;7.88;3.65;;;2.40;88.50;;;;;;20567645;28;20510;-46
2023/01/23 00:38:05;;;;;;;6.32;3.58;;;2.40;89.20;;;;;;20578963;28;20507;-46
2023/01/23 00:48:06;;;;;;;5.22;3.50;;;2.50;88.50;;;;;;20565869;28;20294;-46
2023/01/23 00:58:08;;;;;;;7.28;3.97;;;2.50;88.50;;;;;;20553680;28;20062;-46
2023/01/23 01:08:09;;;;;;;6.78;3.55;;;2.50;88.90;;;;;;20552207;28;21111;-46
2023/01/23 01:18:10;;;;;;;8.02;3.45;;;2.50;88.50;;;;;;20564036;28;20326;-45
2023/01/23 01:28:12;;;;;;;5.78;3.15;;;2.40;88.80;;;;;;20562256;28;20034;-46
2023/01/23 01:38:13;;;;;;;10.40;4.18;;;2.40;89.60;;;;;;20557142;28;20099;-46
2023/01/23 01:48:14;;;;;;;4.85;2.75;;;2.40;90.10;;;;;;20564446;28;20054;-46
2023/01/23 01:58:16;;;;;;;6.43;3.45;;;2.30;90.30;;;;;;20561896;28;20398;-45
2023/01/23 02:08:38;;;;;;;6.28;3.78;;;2.30;91.30;;;;;;20558103;28;21864;-46
2023/01/23 02:18:46;;;;;;;11.63;4.28;;;2.40;91.40;;;;;;20557101;28;20112;-46
2023/01/23 02:28:50;;;;;;;9.45;3.58;;;2.30;92.00;;;;;;20572352;28;20305;-46
2023/01/23 02:38:57;;;;;;;7.53;3.70;;;2.40;92.60;;;;;;20558504;28;20758;-46
2023/01/23 02:48:58;;;;;;;7.22;3.67;;;2.40;93.00;;;;;;20576617;28;20050;-46
2023/01/23 03:09:19;;;;;;;5.13;3.20;;;2.50;93.60;;;;;;20576167;28;20937;-46
2023/01/23 03:19:22;;;;;;;7.07;3.72;;;2.40;93.30;;;;;;20564910;28;20511;-46
2023/01/23 03:50:05;;;;;;;8.85;4.28;;;2.50;94.30;;;;;;20547196;28;20924;-46
2023/01/23 04:00:07;;;;;;;6.95;3.35;;;2.50;94.50;;;;;;20554762;28;20140;-46
2023/01/23 04:10:08;;;;;;;7.97;4.05;;;2.40;94.80;;;;;;20551254;28;20075;-46
2023/01/23 04:20:11;;;;;;;6.70;4.55;;;2.40;94.90;;;;;;20548466;28;20058;-46
2023/01/23 04:30:12;;;;;;;7.45;3.90;;;2.40;95.40;;;;;;20550489;28;20054;-46
2023/01/23 04:40:14;;;;;;;8.32;4.47;;;2.40;95.70;;;;;;20557764;28;20118;-46
2023/01/23 04:50:16;;;;;;;8.52;3.65;;;2.50;95.80;;;;;;20550257;28;20450;-46
2023/01/23 05:00:17;;;;;;;10.80;3.90;;;2.50;95.80;;;;;;20557605;28;20860;-45
2023/01/23 05:10:19;;;;;;;7.38;3.38;;;2.50;96.00;;;;;;20546219;28;20548;-45
2023/01/23 05:20:22;;;;;;;8.85;4.47;;;2.50;96.20;;;;;;20542201;28;20129;-46
2023/01/23 05:30:23;;;;;;;10.65;5.88;;;2.40;96.40;;;;;;20549458;28;20042;-45
2023/01/23 05:40:24;;;;;;;9.13;5.03;;;2.40;96.50;;;;;;20560385;28;20124;-45
2023/01/23 05:50:25;;;;;;;12.82;5.45;;;2.40;96.80;;;;;;20546245;28;20074;-46
2023/01/23 06:00:26;;;;;;;5.40;2.72;;;2.50;97.10;;;;;;20547755;28;20121;-45
2023/01/23 06:10:27;;;;;;;9.13;4.20;;;2.50;97.20;;;;;;20528447;28;20086;-46
2023/01/23 06:20:28;;;;;;;11.25;5.00;;;2.50;97.20;;;;;;20535121;28;20501;-45
2023/01/23 06:30:29;;;;;;;11.10;4.38;;;2.50;97.40;;;;;;20541550;28;20047;-45
2023/01/23 06:40:30;;;;;;;10.70;3.78;;;2.50;97.70;;;;;;20540446;28;20093;-45
2023/01/23 06:50:31;;;;;;;13.93;5.05;;;2.50;97.60;;;;;;20539443;28;20050;-46
2023/01/23 07:00:35;;;;;;;8.30;4.63;;;2.50;97.50;;;;;;20533068;28;20672;-46
2023/01/23 07:10:36;;;;;;;10.18;5.80;;;2.50;97.70;;;;;;20543769;28;20151;-45
2023/01/23 07:20:38;;;;;;;10.98;4.80;;;2.60;97.80;;;;;;20555084;28;20050;-45
2023/01/23 07:30:39;;;;;;;7.28;3.60;;;2.60;97.60;;;;;;20564740;28;20039;-45
2023/01/23 07:40:41;;;;;;;9.20;4.18;;;2.60;96.90;;;;;;20564917;28;20042;-46
2023/01/23 07:50:42;;;;;;;7.30;3.40;;;2.50;96.50;;;;;;20574119;28;20057;-46
2023/01/23 08:00:44;;;;;;;7.72;3.90;;;2.50;96.80;;;;;;20571097;28;20073;-45
2023/01/23 08:10:45;;;;;;;10.60;6.28;;;2.60;96.90;;;;;;20561298;28;21108;-46
2023/01/23 08:20:53;;;;;;;8.10;4.55;;;2.60;96.60;;;;;;20568427;28;21771;-46
2023/01/23 08:30:58;;;;;;;5.65;4.00;;;2.60;96.70;;;;;;20584591;28;20116;-46
2023/01/23 08:41:01;;;;;;;10.65;5.55;;;2.60;97.30;;;;;;20574305;28;20113;-46
2023/01/23 08:51:05;;;;;;;12.13;6.65;;;2.70;97.60;;;;;;20574210;28;20084;-45
2023/01/23 09:01:11;;;;;;;19.55;6.13;;;2.70;97.60;;;;;;20563074;28;20066;-45
2023/01/23 09:11:13;;;;;;;8.68;5.70;;;2.80;98.00;;;;;;20555482;28;20176;-46
2023/01/23 09:21:16;;;;;;;5.75;3.40;;;2.90;98.00;;;;;;20559713;28;20058;-46
2023/01/23 09:31:17;;;;;;;10.38;4.82;;;3.10;98.00;;;;;;20564961;28;20692;-46
2023/01/23 09:41:28;;;;;;;11.90;5.55;;;3.20;97.60;;;;;;20555199;28;20070;-46
2023/01/23 09:51:59;;;;;;;7.85;5.20;;;3.30;97.10;;;;;;20553846;28;20913;-46
2023/01/23 10:02:01;;;;;;;9.82;4.88;;;3.50;97.70;;;;;;20573054;28;20158;-45
2023/01/23 10:12:29;;;;;;;11.18;5.90;;;3.60;95.90;;;;;;20569257;28;20046;-45
2023/01/23 10:22:40;;;;;;;12.85;6.50;;;3.70;94.10;;;;;;20561990;28;21249;-46
2023/01/23 10:33:10;;;;;;;11.38;5.10;;;3.80;91.70;;;;;;20552311;28;20098;-46
2023/01/23 10:43:16;;;;;;;12.82;6.45;;;3.90;86.00;;;;;;20550255;28;20887;-46
2023/01/23 10:53:19;;;;;;;8.87;4.97;;;4.00;85.70;;;;;;20559269;28;20790;-46
2023/01/23 11:03:20;;;;;;;10.38;5.25;;;4.20;86.30;;;;;;20555881;28;20569;-46
2023/01/23 11:13:29;;;;;;;11.45;5.97;;;4.50;78.70;;;;;;20570126;28;20482;-46
2023/01/23 11:23:32;;;;;;;8.45;6.18;;;4.50;64.50;;;;;;20572157;28;20049;-47
2023/01/23 11:33:39;;;;;;;11.75;4.60;;;5.10;65.60;;;;;;20571084;28;20046;-47
2023/01/23 11:43:41;;;;;;;10.20;3.67;;;6.20;54.10;;;;;;20573745;28;20050;-47
2023/01/23 11:54:19;;;;;;;4.25;2.90;;;6.70;37.90;;;;;;20552513;28;20564;-47
2023/01/23 12:04:38;;;;;;;6.20;2.87;;;7.30;31.30;;;;;;20558740;28;20927;-47
2023/01/23 12:15:04;;;;;;;5.85;3.17;;;7.70;26.60;;;;;;20561035;28;20658;-47
2023/01/23 12:25:30;;;;;;;4.50;2.53;;;8.00;24.90;;;;;;20574689;28;20303;-47
2023/01/23 12:35:40;;;;;;;4.85;2.03;;;8.30;22.30;;;;;;20569581;28;20859;-48
2023/01/23 12:45:47;;;;;;;5.18;2.28;;;8.70;21.60;;;;;;20562987;28;20086;-47
2023/01/23 12:56:09;;;;;;;4.82;2.25;;;7.80;18.10;;;;;;20553564;28;21229;-47
2023/01/23 13:07:00;;;;;;;6.32;2.47;;;6.70;22.60;;;;;;20539600;28;20522;-47
2023/01/23 13:17:02;;;;;;;6.82;2.65;;;6.40;25.80;;;;;;20525279;28;20312;-47
2023/01/23 13:27:46;;;;;;;3.88;2.05;;;6.30;27.50;;;;;;20552135;28;20053;-47
2023/01/23 13:37:50;;;;;;;6.63;2.33;;;6.20;27.30;;;;;;20504898;28;20960;-47
2023/01/23 13:58:22;;;;;;;4.13;1.70;;;6.70;25.80;;;;;;20544185;28;22006;-47
2023/01/23 14:08:25;;;;;;;6.22;3.05;;;7.20;21.50;;;;;;20534284;28;20961;-47
2023/01/23 14:18:31;;;;;;;5.70;2.45;;;6.80;21.10;;;;;;20501405;28;20034;-47
2023/01/23 14:28:32;;;;;;;6.40;2.85;;;6.50;24.20;;;;;;20535127;28;20149;-47
2023/01/23 14:38:33;;;;;;;4.10;2.30;;;6.40;25.10;;;;;;20542250;28;20141;-47
2023/01/23 14:48:39;;;;;;;7.03;2.72;;;6.60;24.10;;;;;;20544793;28;20049;-47
2023/01/23 14:58:41;;;;;;;4.35;2.05;;;6.20;24.20;;;;;;20546426;28;20121;-47
2023/01/23 15:08:42;;;;;;;5.00;1.85;;;5.80;25.80;;;;;;20554474;28;20070;-47
2023/01/23 15:19:05;;;;;;;5.32;2.42;;;5.60;28.20;;;;;;20551488;28;20169;-47
2023/01/23 15:29:08;;;;;;;4.22;1.85;;;5.40;30.40;;;;;;20534889;28;21884;-47
2023/01/23 15:39:19;;;;;;;4.25;2.80;;;5.20;31.10;;;;;;20547777;28;20050;-47
2023/01/23 15:49:21;;;;;;;5.18;2.45;;;5.10;32.60;;;;;;20556106;28;20130;-47
2023/01/23 15:59:22;;;;;;;4.07;2.33;;;4.90;32.20;;;;;;20571607;28;20066;-47
2023/01/23 16:09:32;;;;;;;8.13;3.05;;;5.00;30.00;;;;;;20557881;28;20475;-47
2023/01/23 16:19:33;;;;;;;5.20;2.85;;;5.00;28.80;;;;;;20545078;28;20137;-47
2023/01/23 16:29:34;;;;;;;5.00;2.42;;;4.90;31.00;;;;;;20534169;28;20042;-47
2023/01/23 16:39:36;;;;;;;4.10;2.17;;;4.80;29.70;;;;;;20555084;28;20121;-47
2023/01/23 16:49:37;;;;;;;7.05;3.90;;;4.70;32.90;;;;;;20571487;28;20108;-47
2023/01/23 16:59:39;;;;;;;5.22;2.08;;;4.70;33.60;;;;;;20566622;28;20047;-47
2023/01/23 17:09:40;;;;;;;6.88;3.25;;;4.70;37.50;;;;;;20561351;28;20054;-47
2023/01/23 17:19:42;;;;;;;4.63;3.30;;;4.70;37.80;;;;;;20540012;28;20493;-47
2023/01/23 17:29:43;;;;;;;5.45;3.13;;;4.60;38.80;;;;;;20545131;28;20541;-47
2023/01/23 17:39:44;;;;;;;4.65;2.45;;;4.60;41.40;;;;;;20554063;28;20425;-47
2023/01/23 17:49:51;;;;;;;4.35;2.95;;;4.60;42.10;;;;;;20554927;28;20054;-47
2023/01/23 17:59:52;;;;;;;12.13;4.63;;;4.60;43.40;;;;;;20551126;28;20134;-48
2023/01/23 18:09:55;;;;;;;5.75;3.13;;;4.50;44.70;;;;;;20542550;28;20045;-47
2023/01/23 18:19:56;;;;;;;8.52;3.33;;;4.50;44.90;;;;;;20535278;28;20133;-47
2023/01/23 18:30:31;;;;;;;5.28;3.60;;;4.40;44.10;;;;;;20538850;28;20069;-48
2023/01/23 18:40:45;;;;;;;8.05;4.00;;;4.50;43.50;;;;;;20538026;28;20054;-48
2023/01/23 18:50:58;;;;;;;7.47;3.92;;;4.50;43.10;;;;;;20532620;28;21056;-47
2023/01/23 19:01:22;;;;;;;6.25;3.58;;;4.40;39.40;;;;;;20530774;28;20137;-47
2023/01/23 19:12:04;;;;;;;10.07;4.90;;;4.40;42.90;;;;;;20547618;28;20953;-48
2023/01/23 19:22:16;;;;;;;10.15;5.53;;;4.30;42.70;;;;;;20546788;28;21972;-47
2023/01/23 19:32:18;;;;;;;8.25;3.88;;;4.30;41.70;;;;;;20553246;28;21662;-47
2023/01/23 19:42:19;;;;;;;8.40;4.70;;;4.30;39.60;;;;;;20555869;28;20162;-47
2023/01/23 19:52:20;;;;;;;9.43;4.78;;;4.30;38.90;;;;;;20549964;28;20122;-47
2023/01/23 20:02:21;;;;;;;11.20;4.55;;;4.40;39.60;;;;;;20547981;28;20070;-47
2023/01/23 20:12:22;;;;;;;9.75;5.28;;;4.30;42.30;;;;;;20554323;28;20714;-47
2023/01/23 20:22:23;;;;;;;12.82;6.65;;;4.20;42.20;;;;;;20552575;28;20137;-47
2023/01/23 20:32:24;;;;;;;10.68;4.43;;;4.30;35.70;;;;;;20558709;28;20306;-47
2023/01/23 20:42:26;;;;;;;14.27;7.03;;;4.30;37.70;;;;;;20551324;28;20522;-47
2023/01/23 21:02:47;;;;;;;8.30;4.80;;;4.20;38.20;;;;;;20554469;28;21860;-47
2023/01/23 21:12:48;;;;;;;9.20;5.28;;;4.20;38.00;;;;;;20539008;28;20447;-47
2023/01/23 21:22:49;;;;;;;11.80;5.57;;;4.30;39.40;;;;;;20540462;28;20047;-47
2023/01/23 21:32:50;;;;;;;8.63;5.40;;;4.20;36.60;;;;;;20545597;28;21145;-47
2023/01/23 21:42:51;;;;;;;9.13;5.13;;;4.20;36.50;;;;;;20554050;28;20058;-47
2023/01/23 21:52:52;;;;;;;8.50;5.05;;;4.20;36.00;;;;;;20542395;28;20046;-47
2023/01/23 22:02:53;;;;;;;8.50;5.07;;;4.20;38.50;;;;;;20544506;28;20034;-47
2023/01/23 22:12:54;;;;;;;10.90;5.00;;;4.30;34.80;;;;;;20543770;28;22102;-48
2023/01/23 22:22:55;;;;;;;9.57;5.40;;;4.20;33.40;;;;;;20554986;28;20094;-47
2023/01/23 22:32:56;;;;;;;8.48;4.95;;;4.30;34.00;;;;;;20549646;28;20133;-47
2023/01/23 22:42:57;;;;;;;11.13;5.80;;;4.10;34.40;;;;;;20555744;28;20050;-47
2023/01/23 22:52:58;;;;;;;8.68;4.05;;;4.20;33.60;;;;;;20562908;28;20541;-47
2023/01/23 23:02:59;;;;;;;6.80;2.60;;;4.10;33.30;;;;;;20555238;28;20604;-47
2023/01/23 23:13:00;;;;;;;8.70;3.83;;;4.10;34.30;;;;;;20571672;28;20074;-47
2023/01/23 23:23:01;;;;;;;8.20;4.60;;;4.10;33.60;;;;;;20573869;28;20573;-47
2023/01/23 23:33:02;;;;;;;8.05;4.35;;;4.10;32.20;;;;;;20569337;28;20414;-47
2023/01/23 23:43:04;;;;;;;9.10;4.45;;;4.10;32.90;;;;;;20569487;28;20562;-47
2023/01/23 23:53:05;;;;;;;17.00;5.45;;;4.00;33.00;;;;;;20576197;28;20102;-47
